Terminal Aerodrome Forecast
Issued by NWS Hastings, NE

Home | Current Version | Previous Version | Text Only | Print | Product List | Glossary On
Versions: 1 2 3 4 5 6 7 8 9 10 11 12 13
001
FTUS45 KGID 150534
TAFEAR
TAF
KEAR 150534Z 1506/1606 31007KT P6SM BKN050
     FM151000 27006KT P6SM SCT150
     FM151600 23014G18KT P6SM SCT150
     FM160200 23007KT P6SM BKN150=

USA.gov is the U.S. government's official web portal to all federal, state and local government web resources and services.